Desdemona, Texas
Current Conditions -  °F | °C
As of 9:35 PM on Saturday 22 Nov 2014 (Local Time) from KSEP Reporting Station
Broken Clouds Broken Clouds  
Wind Chill: 55°   Ceiling: 9000
Heat Index: 55°   Visibility: 7mi
Dew Point: 53°   Wind: 6mph
Humidity: 92%   Direction: 140°SE
Pressure: 29.79"   Gusts: NA
Location:  32.27°N, 98.55°W
Report Text: KSEP 230335Z AUTO 14005KT 7SM SCT055 SCT070 BKN090 13/12 A2979 RMK AO2 P0008 T01300117
Loading
Personal Weather Stations






























Interactive Weather Map New forecast layout! Learn more

10-Day Weather Forecast

Advertisements
Track Severe Weather on mobile